createdAt,value
2023-01-18T00:03:36.427Z,-0.93
2023-01-18T00:08:39.590Z,-1.16
2023-01-18T00:13:41.593Z,-0.77
2023-01-18T00:18:44.321Z,-0.65
2023-01-18T00:23:46.025Z,-0.46
2023-01-18T00:28:47.661Z,-0.56
2023-01-18T00:33:50.051Z,-0.36
2023-01-18T00:38:52.467Z,-0.44
2023-01-18T00:43:54.416Z,-0.20
2023-01-18T00:48:57.364Z,-0.23
2023-01-18T00:53:58.951Z,-0.42
2023-01-18T00:59:00.594Z,-0.26
2023-01-18T01:04:20.620Z,-0.43
2023-01-18T01:09:28.976Z,-0.24
2023-01-18T01:14:50.302Z,-0.21
2023-01-18T01:20:10.549Z,-0.08
2023-01-18T01:25:30.855Z,0.06
2023-01-18T01:30:32.476Z,0.08
2023-01-18T01:35:34.105Z,0.16
2023-01-18T01:40:35.764Z,-0.12
2023-01-18T01:45:37.563Z,-0.29
2023-01-18T01:50:40.027Z,-0.17
2023-01-18T01:55:42.537Z,-0.12
2023-01-18T02:00:44.637Z,-0.09
2023-01-18T02:05:50.801Z,0.18
2023-01-18T02:10:52.821Z,0.30
2023-01-18T02:16:13.447Z,0.31
2023-01-18T02:21:46.915Z,0.55
2023-01-18T02:27:17.637Z,0.57
2023-01-18T02:32:38.061Z,0.49
2023-01-18T02:38:02.003Z,0.44
2023-01-18T02:43:26.479Z,0.49
2023-01-18T02:48:34.925Z,0.52
2023-01-18T02:53:44.763Z,0.19
2023-01-18T02:58:51.300Z,0.37
2023-01-18T03:04:02.079Z,0.62
2023-01-18T03:09:03.903Z,0.71
2023-01-18T03:14:20.650Z,0.56
2023-01-18T03:19:42.896Z,0.65
2023-01-18T03:24:46.033Z,0.57
2023-01-18T03:30:06.185Z,0.79
2023-01-18T03:35:14.819Z,0.48
2023-01-18T03:40:23.721Z,0.43
2023-01-18T03:45:35.011Z,0.67
2023-01-18T03:50:49.679Z,0.61
2023-01-18T03:55:56.844Z,0.81
2023-01-18T04:00:58.807Z,0.55
2023-01-18T04:06:02.543Z,0.54
2023-01-18T04:11:04.233Z,0.32
2023-01-18T04:16:06.087Z,0.32
2023-01-18T04:21:07.729Z,0.47
2023-01-18T04:26:09.462Z,0.33
2023-01-18T04:31:11.132Z,0.24
2023-01-18T04:36:12.801Z,0.04
2023-01-18T04:41:14.459Z,0.04
2023-01-18T04:46:16.111Z,0.41
2023-01-18T04:51:18.795Z,0.40
2023-01-18T04:56:20.415Z,0.47
2023-01-18T05:01:22.721Z,0.54
2023-01-18T05:06:24.662Z,0.57
2023-01-18T05:11:27.154Z,0.48
2023-01-18T05:16:28.876Z,0.48
2023-01-18T05:21:30.547Z,0.42
2023-01-18T05:26:32.174Z,0.52
2023-01-18T05:31:33.921Z,0.63
2023-01-18T05:36:35.679Z,0.45
2023-01-18T05:41:37.303Z,0.37
2023-01-18T05:46:38.896Z,0.24
2023-01-18T05:51:40.516Z,0.38
2023-01-18T05:56:42.344Z,0.42
2023-01-18T06:01:43.985Z,0.38
2023-01-18T06:06:45.601Z,0.58
2023-01-18T06:11:47.227Z,0.43
2023-01-18T06:16:48.819Z,0.29
2023-01-18T06:21:50.422Z,0.29
2023-01-18T06:26:52.027Z,0.35
2023-01-18T06:31:53.869Z,0.37
2023-01-18T06:36:55.543Z,0.48
2023-01-18T06:41:57.430Z,0.67
2023-01-18T06:46:59.301Z,0.63
2023-01-18T06:52:00.946Z,0.66
2023-01-18T06:57:02.611Z,0.76
2023-01-18T07:02:05.075Z,0.69
2023-01-18T07:07:08.012Z,0.75
2023-01-18T07:12:09.680Z,0.76
2023-01-18T07:17:11.336Z,0.88
2023-01-18T07:22:13.427Z,1.00
2023-01-18T07:27:15.111Z,1.10
2023-01-18T07:32:16.779Z,1.07
2023-01-18T07:37:18.367Z,0.87
2023-01-18T07:42:20.002Z,0.75
2023-01-18T07:47:21.729Z,0.96
2023-01-18T07:52:23.360Z,1.22
2023-01-18T07:57:25.868Z,1.08
2023-01-18T08:02:27.528Z,1.44
2023-01-18T08:07:32.549Z,1.26
2023-01-18T08:12:34.182Z,1.40
2023-01-18T08:17:35.806Z,1.40
2023-01-18T08:22:37.421Z,1.40
2023-01-18T08:27:39.048Z,1.10
2023-01-18T08:32:40.993Z,1.17
2023-01-18T08:37:42.589Z,1.05
2023-01-18T08:42:44.469Z,1.06
2023-01-18T08:47:46.537Z,1.48
2023-01-18T08:52:48.143Z,1.79
2023-01-18T08:57:50.267Z,1.79
2023-01-18T09:02:52.173Z,1.90
2023-01-18T09:07:54.926Z,1.73
2023-01-18T09:12:57.111Z,1.79
2023-01-18T09:17:59.844Z,2.07
2023-01-18T09:23:10.250Z,2.07
2023-01-18T09:28:13.120Z,2.07
2023-01-18T09:33:14.924Z,1.93
2023-01-18T09:38:16.506Z,2.15
2023-01-18T09:43:27.563Z,2.25
2023-01-18T09:48:31.376Z,2.22
2023-01-18T09:53:38.877Z,2.12
2023-01-18T09:58:46.920Z,1.96
2023-01-18T10:04:19.244Z,2.07
2023-01-18T10:09:25.849Z,2.57
2023-01-18T10:14:53.154Z,2.63
2023-01-18T10:19:54.759Z,2.71
2023-01-18T10:25:05.488Z,2.62
2023-01-18T10:30:25.843Z,2.57
2023-01-18T10:35:36.550Z,2.77
2023-01-18T10:40:40.726Z,2.96
2023-01-18T10:45:44.220Z,3.26
2023-01-18T10:50:53.553Z,3.20
2023-01-18T10:56:18.371Z,2.94
2023-01-18T11:01:23.671Z,2.83
2023-01-18T11:06:26.391Z,3.04
2023-01-18T11:11:50.061Z,2.76
2023-01-18T11:17:11.512Z,2.87
2023-01-18T11:22:16.982Z,2.85
2023-01-18T11:27:24.833Z,2.72
2023-01-18T11:32:29.890Z,2.69
2023-01-18T11:37:35.374Z,2.68
2023-01-18T11:42:40.489Z,2.58
2023-01-18T11:47:51.137Z,2.24
2023-01-18T11:52:55.251Z,2.56
2023-01-18T11:57:59.044Z,2.64
2023-01-18T12:03:29.365Z,2.45
2023-01-18T12:08:38.358Z,2.57
2023-01-18T12:13:47.207Z,2.54
2023-01-18T12:18:57.713Z,2.44
2023-01-18T12:24:15.862Z,2.05
2023-01-18T12:29:51.268Z,2.14
2023-01-18T12:35:15.563Z,1.54
2023-01-18T12:40:40.444Z,1.85
2023-01-18T12:45:57.277Z,1.69
2023-01-18T12:51:01.006Z,1.71
2023-01-18T12:56:13.077Z,1.78
2023-01-18T13:01:21.806Z,1.69
2023-01-18T13:06:25.992Z,1.68
2023-01-18T13:11:33.139Z,1.65
2023-01-18T13:17:03.985Z,1.62
2023-01-18T13:22:35.210Z,1.63
2023-01-18T13:27:37.878Z,1.70
2023-01-18T13:32:42.390Z,1.75
2023-01-18T13:37:56.417Z,1.82
2023-01-18T13:42:58.588Z,1.87
2023-01-18T13:48:54.408Z,2.04
2023-01-18T13:53:56.164Z,1.87
2023-01-18T13:59:12.743Z,1.76
2023-01-18T14:04:17.323Z,1.67
2023-01-18T14:09:42.196Z,1.69
2023-01-18T14:14:58.950Z,1.65
2023-01-18T14:20:28.603Z,1.60
2023-01-18T14:25:51.766Z,1.50
2023-01-18T14:30:58.610Z,1.42
2023-01-18T14:36:01.996Z,1.47
2023-01-18T14:41:07.525Z,1.21
2023-01-18T14:46:21.699Z,1.36
2023-01-18T14:51:26.638Z,1.25
2023-01-18T14:56:31.970Z,1.14
2023-01-18T15:01:37.737Z,1.19
2023-01-18T15:06:42.218Z,1.15
2023-01-18T15:11:44.797Z,1.17
2023-01-18T15:16:48.854Z,1.27
2023-01-18T15:21:51.054Z,1.33
2023-01-18T15:27:01.222Z,1.31
2023-01-18T15:32:19.337Z,1.31
2023-01-18T15:37:37.655Z,1.37
2023-01-18T15:42:44.789Z,1.46
2023-01-18T15:47:53.732Z,1.50
2023-01-18T15:53:06.762Z,1.73
2023-01-18T15:58:13.961Z,1.64
2023-01-18T16:03:21.840Z,1.72
2023-01-18T16:08:24.123Z,1.56
2023-01-18T16:13:40.092Z,1.70
2023-01-18T16:18:48.073Z,1.62
2023-01-18T16:23:52.426Z,1.78
2023-01-18T16:28:54.133Z,1.53
2023-01-18T16:33:55.700Z,1.45
2023-01-18T16:38:57.310Z,1.50
2023-01-18T16:44:03.660Z,1.30
2023-01-18T16:49:11.358Z,1.28
2023-01-18T16:54:13.014Z,1.44
2023-01-18T16:59:17.593Z,1.39
2023-01-18T17:04:19.193Z,1.44
2023-01-18T17:09:27.128Z,1.35
2023-01-18T17:14:29.550Z,1.22
2023-01-18T17:19:31.165Z,1.18
2023-01-18T17:24:33.056Z,1.12
2023-01-18T17:29:34.700Z,1.31
2023-01-18T17:34:36.305Z,1.26
2023-01-18T17:39:49.732Z,1.33
2023-01-18T17:45:09.872Z,1.27
2023-01-18T17:50:19.058Z,1.28
2023-01-18T17:55:24.464Z,1.20
2023-01-18T18:00:29.217Z,1.21
2023-01-18T18:05:30.897Z,1.13
2023-01-18T18:10:32.522Z,1.20
2023-01-18T18:15:34.188Z,1.10
2023-01-18T18:20:38.188Z,1.05
2023-01-18T18:25:40.373Z,0.88
2023-01-18T18:30:41.955Z,0.93
2023-01-18T18:35:43.542Z,0.72
2023-01-18T18:40:45.796Z,0.59
2023-01-18T18:45:47.741Z,0.58
2023-01-18T18:50:52.273Z,0.55
2023-01-18T18:56:00.287Z,0.53
2023-01-18T19:01:02.285Z,0.38
2023-01-18T19:06:04.002Z,0.45
2023-01-18T19:11:05.681Z,0.45
2023-01-18T19:16:07.781Z,0.56
2023-01-18T19:21:09.421Z,0.45
2023-01-18T19:26:11.043Z,0.50
2023-01-18T19:31:13.126Z,0.35
2023-01-18T19:36:15.511Z,0.38
2023-01-18T19:41:17.561Z,0.36
2023-01-18T19:46:20.253Z,0.28
2023-01-18T19:51:23.050Z,0.30
2023-01-18T19:56:25.747Z,0.30
2023-01-18T20:01:36.402Z,0.45
2023-01-18T20:06:39.507Z,0.46
2023-01-18T20:11:41.220Z,0.24
2023-01-18T20:16:44.907Z,0.52
2023-01-18T20:21:47.533Z,0.53
2023-01-18T20:26:49.141Z,0.48
2023-01-18T20:31:51.411Z,0.50
2023-01-18T20:36:53.089Z,0.54
2023-01-18T20:41:54.700Z,0.64
2023-01-18T20:46:57.425Z,0.56
2023-01-18T20:51:59.047Z,0.55
2023-01-18T20:57:00.637Z,0.65
2023-01-18T21:02:03.343Z,0.65
2023-01-18T21:07:05.230Z,0.74
2023-01-18T21:12:07.107Z,0.58
2023-01-18T21:17:08.887Z,0.77
2023-01-18T21:22:10.485Z,0.64
2023-01-18T21:27:12.694Z,0.65
2023-01-18T21:32:14.752Z,0.39
2023-01-18T21:37:16.365Z,0.20
2023-01-18T21:42:36.726Z,0.12
2023-01-18T21:47:38.314Z,0.15
2023-01-18T21:52:58.145Z,-0.06
2023-01-18T21:58:18.304Z,-0.14
2023-01-18T22:03:20.724Z,-0.18
2023-01-18T22:08:22.319Z,-0.45
2023-01-18T22:13:24.032Z,-0.46
2023-01-18T22:18:25.627Z,-0.60
2023-01-18T22:23:27.280Z,-0.55
2023-01-18T22:28:28.896Z,-0.63
2023-01-18T22:33:30.485Z,-0.65
2023-01-18T22:38:32.438Z,-0.59
2023-01-18T22:43:35.902Z,-0.87
2023-01-18T22:48:38.180Z,-1.04
2023-01-18T22:53:39.790Z,-1.24
2023-01-18T22:58:41.675Z,-1.38
2023-01-18T23:03:44.019Z,-1.36
2023-01-18T23:08:47.286Z,-1.15
2023-01-18T23:14:10.967Z,-1.15
2023-01-18T23:19:12.556Z,-1.11
2023-01-18T23:24:14.141Z,-1.14
2023-01-18T23:29:16.241Z,-1.23
2023-01-18T23:34:18.167Z,-1.32
2023-01-18T23:39:38.382Z,-1.41
2023-01-18T23:44:58.571Z,-1.48
2023-01-18T23:50:18.727Z,-1.51
2023-01-18T23:55:21.524Z,-1.51
